Axel, Colorado
Current Conditions -  °F | °C
As of 4:53 AM on Saturday 25 Oct 2014 (Local Time) from KEEO Reporting Station
Clear Clear  
Wind Chill: 30°   Ceiling: Unl
Heat Index: 34°   Visibility: 10mi
Dew Point: 27°   Wind: 5mph
Humidity: 75%   Direction: 60°ENE
Pressure: 30.32"   Gusts: NA
Location:  40.0347°N, 107.628°W
Report Text: KEEO 251053Z AUTO 06004KT 10SM CLR 01/M03 A3032 RMK AO2 SLP214 T00111028
Loading
Personal Weather Stations






























Interactive Weather Map
Tropical Storm Tracking
New forecast layout! Learn more

10-Day Weather Forecast

Advertisements
Track Severe Weather on mobile